Time;durP1;ratioP1;P1;durP2;ratioP2;P2;SDS_P1;SDS_P2;PMS_P1;PMS_P2;Temp;Humidity;BMP_temperature;BMP_pressure;BME280_temperature;BME280_humidity;BME280_pressure;Samples;Min_cycle;Max_cycle;Signal;HPM_P1;HPM_P2
2022/08/23 00:02:01;;;;;;;32.63;21.83;;;;;;;20.23;100.00;98287.41;4953731;29;20264;-88
2022/08/23 00:04:30;;;;;;;30.73;22.03;;;;;;;21.00;100.00;98439.88;4936087;29;20579;-87
2022/08/23 00:06:56;;;;;;;30.70;21.27;;;;;;;19.82;100.00;98248.50;4951565;29;20161;-87
2022/08/23 00:09:24;;;;;;;31.87;21.27;;;;;;;20.00;100.00;98256.00;4934447;29;20233;-87
2022/08/23 00:12:17;;;;;;;30.43;21.30;;;;;;;21.17;100.00;98458.56;4930442;29;20173;-87
2022/08/23 00:14:48;;;;;;;30.73;20.87;;;;;;;19.92;100.00;98252.66;4943413;29;20161;-87
2022/08/23 00:17:15;;;;;;;30.10;20.70;;;;;;;21.70;100.00;98538.47;4931675;29;20221;-87
2022/08/23 00:19:41;;;;;;;30.17;20.67;;;;;;;19.70;100.00;98230.66;4925195;29;20189;-88
2022/08/23 00:22:07;;;;;;;29.50;20.60;;;;;;;20.26;100.00;98328.53;4937923;29;20180;-88
2022/08/23 00:24:34;;;;;;;32.13;21.10;;;;;;;21.67;100.00;98548.81;4939168;29;20170;-88
2022/08/23 00:27:03;;;;;;;33.87;21.33;;;;;;;21.02;100.00;98475.00;4939589;29;20162;-88
2022/08/23 00:29:38;;;;;;;34.20;21.93;;;;;;;21.51;100.00;98551.63;4937741;29;20180;-88
2022/08/23 00:32:06;;;;;;;28.67;20.07;;;;;;;19.04;100.00;98168.03;4938076;29;20169;-88
2022/08/23 00:34:32;;;;;;;30.70;20.13;;;;;;;19.21;100.00;98223.47;4937746;29;20248;-88
2022/08/23 00:36:58;;;;;;;30.17;19.87;;;;;;;21.03;100.00;98558.22;4919702;29;20201;-87
2022/08/23 00:39:24;;;;;;;29.30;19.17;;;;;;;21.23;100.00;98556.31;4936802;29;20545;-88
2022/08/23 00:41:50;;;;;;;28.07;18.87;;;;;;;20.63;100.00;98493.50;4936542;29;20170;-87
2022/08/23 00:50:20;;;;;;;24.70;17.17;;;;;;;20.93;100.00;98577.22;4935815;29;20169;-88
2022/08/23 00:53:05;;;;;;;25.23;17.60;;;;;;;21.05;100.00;98585.66;4935892;29;20165;-87
2022/08/23 00:55:33;;;;;;;29.67;17.60;;;;;;;20.99;100.00;98597.72;4935297;29;20193;-87
2022/08/23 00:58:00;;;;;;;25.90;17.53;;;;;;;20.58;100.00;98532.13;4936107;29;20220;-87
2022/08/23 01:00:27;;;;;;;27.73;17.70;;;;;;;20.32;100.00;98507.53;4939374;29;20170;-85
2022/08/23 01:02:53;;;;;;;24.30;15.93;;;;;;;19.61;100.00;98419.09;4939817;29;20264;-86
2022/08/23 01:05:23;;;;;;;22.40;15.60;;;;;;;20.45;100.00;98594.84;4937991;29;20256;-87
2022/08/23 01:07:53;;;;;;;26.17;17.37;;;;;;;20.70;100.00;98589.47;4917830;29;20568;-88
2022/08/23 01:10:28;;;;;;;23.10;16.47;;;;;;;19.52;100.00;98379.78;4935870;29;20183;-88
2022/08/23 01:13:02;;;;;;;26.23;16.97;;;;;;;20.83;100.00;98585.88;4918649;29;20177;-88
2022/08/23 01:15:36;;;;;;;25.43;17.40;;;;;;;20.96;100.00;98572.00;4935639;29;20161;-87
2022/08/23 01:18:07;;;;;;;26.77;17.77;;;;;;;20.98;100.00;98570.31;4918262;29;20268;-87
2022/08/23 01:20:57;;;;;;;26.47;18.60;;;;;;;21.12;100.00;98589.06;4944789;29;20166;-87
2022/08/23 01:23:44;;;;;;;24.30;16.90;;;;;;;20.97;100.00;98527.41;4859343;29;20195;-89
2022/08/23 01:26:13;;;;;;;22.37;17.03;;;;;;;20.29;100.00;98428.75;4858500;29;20314;-88
2022/08/23 01:28:39;;;;;;;27.03;17.10;;;;;;;19.89;100.00;98352.88;4858598;29;20188;-88
2022/08/23 01:31:06;;;;;;;25.40;16.50;;;;;;;20.69;100.00;98490.00;4858441;29;20168;-88
2022/08/23 01:33:31;;;;;;;25.00;16.63;;;;;;;19.70;100.00;98354.78;4842877;29;20267;-88
2022/08/23 01:35:58;;;;;;;22.27;14.70;;;;;;;19.57;100.00;98358.34;4858660;29;20254;-87
2022/08/23 01:38:25;;;;;;;24.40;16.23;;;;;;;20.71;100.00;98552.59;4858244;29;20196;-87
2022/08/23 01:40:51;;;;;;;24.57;16.63;;;;;;;21.05;100.00;98608.81;4857805;29;20643;-87
2022/08/23 01:43:18;;;;;;;25.87;17.10;;;;;;;20.24;100.00;98474.22;4842830;29;20184;-87
2022/08/23 01:45:45;;;;;;;26.53;17.43;;;;;;;19.76;100.00;98436.91;4842357;29;20180;-87
2022/08/23 01:48:11;;;;;;;26.13;17.40;;;;;;;20.92;100.00;98585.81;4858161;29;20425;-88
2022/08/23 01:50:37;;;;;;;27.73;18.00;;;;;;;20.96;100.00;98602.91;4842652;29;20222;-86
2022/08/23 01:53:03;;;;;;;28.27;18.33;;;;;;;20.55;100.00;98533.88;4857689;29;20700;-87
2022/08/23 01:55:28;;;;;;;27.10;18.70;;;;;;;18.62;100.00;98244.44;4857854;29;20176;-87
2022/08/23 01:57:57;;;;;;;27.20;18.70;;;;;;;18.49;100.00;98222.31;4857842;29;20192;-87
2022/08/23 02:00:29;;;;;;;30.33;19.67;;;;;;;20.66;100.00;98569.78;4893894;29;20193;-86
2022/08/23 02:02:56;;;;;;;30.43;19.73;;;;;;;19.54;100.00;98411.41;4934870;29;20161;-86
2022/08/23 02:05:21;;;;;;;26.93;19.53;;;;;;;20.42;100.00;98584.56;4934493;29;20275;-87
2022/08/23 02:07:47;;;;;;;29.33;19.70;;;;;;;20.26;100.00;98572.72;4917737;29;20260;-86
2022/08/23 02:10:13;;;;;;;29.13;19.47;;;;;;;19.24;100.00;98417.59;4934694;29;20244;-85
2022/08/23 02:12:38;;;;;;;30.67;19.27;;;;;;;19.68;100.00;98520.00;4934331;29;20622;-85
2022/08/23 02:15:04;;;;;;;28.77;18.40;;;;;;;19.40;100.00;98458.59;4934557;29;20225;-85
2022/08/23 02:17:30;;;;;;;32.33;19.90;;;;;;;18.80;100.00;98352.03;4917499;29;20193;-86
2022/08/23 02:19:55;;;;;;;31.87;21.07;;;;;;;20.10;100.00;98585.66;4934347;29;20531;-85
2022/08/23 02:22:21;;;;;;;33.00;21.77;;;;;;;20.23;100.00;98602.69;4934483;29;20642;-84
2022/08/23 02:24:47;;;;;;;35.30;22.67;;;;;;;19.29;100.00;98457.75;4934541;29;20170;-85
2022/08/23 02:27:14;;;;;;;33.50;22.53;;;;;;;19.88;100.00;98554.13;4934429;29;20166;-86
2022/08/23 02:29:41;;;;;;;32.93;21.80;;;;;;;19.16;100.00;98433.03;4934322;29;20257;-85
2022/08/23 02:32:08;;;;;;;31.93;21.77;;;;;;;20.31;100.00;98611.22;4934413;29;20173;-85
2022/08/23 02:34:35;;;;;;;33.43;20.97;;;;;;;18.77;100.00;98367.44;4934351;29;20162;-86
2022/08/23 02:37:01;;;;;;;31.83;21.40;;;;;;;20.34;100.00;98619.78;4934984;29;20190;-85
2022/08/23 02:39:26;;;;;;;30.93;20.93;;;;;;;19.35;100.00;98454.31;4937643;29;20176;-86
2022/08/23 02:41:52;;;;;;;32.67;19.93;;;;;;;18.95;100.00;98411.81;4937735;29;20170;-85
2022/08/23 02:44:18;;;;;;;29.47;19.67;;;;;;;19.79;100.00;98531.06;4920679;29;20177;-86
2022/08/23 02:46:44;;;;;;;30.53;20.67;;;;;;;20.47;100.00;98656.53;4921216;29;20649;-85
2022/08/23 02:49:10;;;;;;;34.83;21.57;;;;;;;18.84;100.00;98373.38;4938015;29;20278;-85
2022/08/23 02:51:36;;;;;;;33.90;21.10;;;;;;;19.79;100.00;98551.63;4937503;29;20173;-85
2022/08/23 02:54:01;;;;;;;35.37;21.30;;;;;;;20.37;100.00;98621.47;4937239;29;20166;-86
2022/08/23 02:56:27;;;;;;;34.73;21.30;;;;;;;18.75;100.00;98358.03;4937501;29;20574;-86
2022/08/23 02:58:52;;;;;;;28.50;18.40;;;;;;;18.94;100.00;98385.28;4920837;29;20205;-85
2022/08/23 03:01:31;;;;;;;35.77;20.93;;;;;;;19.04;100.00;98386.94;4922626;29;20177;-87
2022/08/23 03:03:57;;;;;;;34.57;21.27;;;;;;;20.45;100.00;98641.13;4953554;29;20176;-86
2022/08/23 03:06:23;;;;;;;31.90;20.13;;;;;;;18.88;100.00;98359.66;4956299;29;20165;-86
2022/08/23 03:08:49;;;;;;;29.70;18.40;;;;;;;19.91;100.00;98577.25;4937042;29;20547;-87
2022/08/23 03:11:19;;;;;;;27.03;19.27;;;;;;;20.21;100.00;98625.00;4921519;29;20172;-85
2022/08/23 03:13:45;;;;;;;28.97;18.00;;;;;;;18.43;100.00;98336.81;4941513;29;20169;-87
2022/08/23 03:16:11;;;;;;;27.07;17.33;;;;;;;17.68;100.00;98213.34;4941571;29;20172;-87
2022/08/23 03:18:38;;;;;;;24.53;16.20;;;;;;;19.97;100.00;98574.59;4938604;29;20213;-88
2022/08/23 03:21:06;;;;;;;23.40;16.33;;;;;;;20.33;100.00;98646.34;4927693;29;20241;-87
2022/08/23 03:23:33;;;;;;;23.77;15.67;;;;;;;20.30;100.00;98642.97;4927381;29;20526;-86
2022/08/23 03:26:00;;;;;;;24.77;16.37;;;;;;;18.39;100.00;98350.50;4927196;29;20564;-88
2022/08/23 03:28:27;;;;;;;24.00;16.23;;;;;;;19.11;100.00;98450.19;4921718;29;20255;-89
2022/08/23 03:30:53;;;;;;;25.57;16.77;;;;;;;19.55;100.00;98454.22;4937873;29;20180;-87
2022/08/23 03:33:19;;;;;;;22.73;15.40;;;;;;;20.80;100.00;98663.97;4920235;29;20619;-87
2022/08/23 03:35:44;;;;;;;25.27;16.73;;;;;;;20.53;100.00;98567.31;4937023;29;20166;-86
2022/08/23 03:38:10;;;;;;;24.27;16.57;;;;;;;19.80;100.00;98422.34;4936783;29;20252;-87
2022/08/23 03:40:35;;;;;;;24.43;16.63;;;;;;;19.49;100.00;98364.41;4937071;29;20602;-87
2022/08/23 03:43:01;;;;;;;24.83;16.37;;;;;;;21.33;100.00;98665.19;4919902;29;20184;-87
2022/08/23 03:45:27;;;;;;;23.73;16.20;;;;;;;19.86;100.00;98414.59;4920090;29;20176;-87
2022/08/23 03:47:53;;;;;;;23.00;15.67;;;;;;;20.76;100.00;98536.25;4919876;29;20233;-88
2022/08/23 03:50:19;;;;;;;22.10;14.27;;;;;;;21.32;100.00;98648.88;4936085;29;20219;-88
2022/08/23 03:52:46;;;;;;;20.77;13.73;;;;;;;19.16;100.00;98320.16;4936773;29;20166;-88
2022/08/23 03:55:12;;;;;;;20.07;12.93;;;;;;;19.65;100.00;98402.78;4936807;29;20657;-88
2022/08/23 03:57:38;;;;;;;18.33;13.27;;;;;;;19.03;100.00;98287.75;4936678;29;20190;-88
2022/08/23 04:00:06;;;;;;;18.03;13.00;;;;;;;21.36;100.00;98655.72;4936584;29;20177;-88
2022/08/23 04:02:32;;;;;;;21.53;13.73;;;;;;;19.97;100.00;98441.00;4936242;29;20169;-88
2022/08/23 04:04:58;;;;;;;22.23;14.10;;;;;;;20.01;100.00;98445.25;4936934;29;20170;-88
2022/08/23 04:07:24;;;;;;;20.50;13.77;;;;;;;18.94;100.00;98300.66;4936812;29;20169;-89
2022/08/23 04:09:50;;;;;;;23.60;14.83;;;;;;;19.23;100.00;98367.97;4936288;29;20234;-88
2022/08/23 04:12:15;;;;;;;21.30;14.73;;;;;;;18.45;100.00;98282.13;4923475;29;20232;-88
2022/08/23 04:14:41;;;;;;;21.67;14.97;;;;;;;18.69;100.00;98311.91;4918163;29;20181;-88
2022/08/23 04:17:06;;;;;;;25.07;15.20;;;;;;;20.03;100.00;98543.72;4937641;29;20219;-87
2022/08/23 04:19:31;;;;;;;22.40;15.13;;;;;;;20.08;100.00;98552.25;4955904;29;20268;-87
2022/08/23 04:21:57;;;;;;;22.23;14.60;;;;;;;19.40;100.00;98414.09;4953793;29;20181;-88
2022/08/23 04:24:23;;;;;;;23.60;14.33;;;;;;;19.22;100.00;98381.69;4945397;29;20185;-88
2022/08/23 04:26:48;;;;;;;21.47;13.90;;;;;;;19.74;100.00;98477.19;4936410;29;20280;-87
2022/08/23 04:29:15;;;;;;;22.07;13.53;;;;;;;20.76;100.00;98671.72;4936559;29;20193;-90
2022/08/23 04:31:42;;;;;;;20.83;13.33;;;;;;;20.77;100.00;98669.13;4936179;29;20224;-86
2022/08/23 04:34:08;;;;;;;17.47;12.43;;;;;;;20.63;100.00;98626.41;4917368;29;20193;-87
2022/08/23 04:36:39;;;;;;;19.40;12.50;;;;;;;21.18;100.00;98666.19;4934243;29;20201;-90
2022/08/23 04:39:05;;;;;;;17.00;12.03;;;;;;;19.53;100.00;98379.75;4916704;29;20276;-87
2022/08/23 04:44:15;;;;;;;17.40;11.50;;;;;;;21.86;100.00;98669.69;4933353;29;20203;-88
2022/08/23 04:46:42;;;;;;;16.33;11.53;;;;;;;20.50;100.00;98422.50;4917281;29;20185;-89
2022/08/23 04:49:09;;;;;;;16.20;11.67;;;;;;;21.41;100.00;98556.06;4933756;29;20930;-88
2022/08/23 04:51:34;;;;;;;16.67;10.90;;;;;;;21.71;100.00;98571.09;4917174;29;20189;-88
2022/08/23 04:54:00;;;;;;;16.17;10.87;;;;;;;22.49;100.00;98676.53;4917400;29;20256;-90
2022/08/23 04:56:25;;;;;;;15.13;10.20;;;;;;;22.02;100.00;98612.78;4934358;29;20256;-90
2022/08/23 04:58:51;;;;;;;13.97;10.23;;;;;;;22.57;100.00;98677.28;4917314;29;20642;-89
2022/08/23 05:01:16;;;;;;;16.13;9.60;;;;;;;21.22;100.00;98431.03;4934175;29;20615;-91
2022/08/23 05:03:42;;;;;;;14.73;10.60;;;;;;;22.66;100.00;98656.50;4917330;29;20193;-91
2022/08/23 05:06:07;;;;;;;15.13;10.57;;;;;;;21.65;100.00;98493.91;4920905;29;20216;-90
2022/08/23 05:08:34;;;;;;;14.37;9.93;;;;;;;21.32;100.00;98431.72;4950696;29;20193;-89
2022/08/23 05:11:05;;;;;;;14.03;10.07;;;;;;;21.13;100.00;98369.38;4931628;28;20188;-92
2022/08/23 05:13:31;;;;;;;14.43;9.17;;;;;;;23.19;100.00;98690.84;4938704;29;20192;-89
2022/08/23 05:15:57;;;;;;;13.13;9.30;;;;;;;22.27;100.00;98502.38;4937118;29;20658;-89
2022/08/23 05:18:23;;;;;;;11.77;9.30;;;;;;;21.98;100.00;98486.53;4936965;29;20264;-90
2022/08/23 05:20:49;;;;;;;15.30;8.93;;;;;;;21.99;100.00;98483.09;4917466;29;20661;-90
2022/08/23 05:23:14;;;;;;;15.90;9.33;;;;;;;22.47;100.00;98557.03;4917261;29;20279;-90
2022/08/23 05:25:49;;;;;;;16.60;9.07;;;;;;;22.21;100.00;98520.53;4917425;29;20189;-90
2022/08/23 05:28:19;;;;;;;18.03;9.37;;;;;;;21.94;100.00;98434.22;4918067;29;20218;-91
2022/08/23 05:30:52;;;;;;;12.83;8.77;;;;;;;22.63;100.00;98513.75;4917245;29;20193;-90
2022/08/23 05:33:18;;;;;;;15.27;9.30;;;;;;;23.69;100.00;98698.53;4934405;29;20205;-90
2022/08/23 05:35:43;;;;;;;13.07;9.17;;;;;;;22.68;100.00;98533.47;4916588;29;20571;-89
2022/08/23 05:38:08;;;;;;;14.77;8.97;;;;;;;23.66;100.00;98693.41;4934027;29;20205;-90
2022/08/23 05:40:34;;;;;;;11.40;8.17;;;;;;;21.95;100.00;98478.88;4917155;29;20185;-90
2022/08/23 05:42:59;;;;;;;11.50;8.77;;;;;;;21.78;100.00;98435.31;4916464;29;20252;-90
2022/08/23 05:45:25;;;;;;;12.47;8.17;;;;;;;22.17;100.00;98480.19;4933102;29;20240;-89
2022/08/23 05:47:50;;;;;;;13.13;8.23;;;;;;;23.00;100.00;98676.56;4917268;29;20612;-90
2022/08/23 05:50:16;;;;;;;13.07;8.70;;;;;;;20.98;100.00;98308.69;4933285;29;20615;-89
2022/08/23 05:52:41;;;;;;;13.33;9.00;;;;;;;22.14;100.00;98454.50;4933850;29;20188;-90
2022/08/23 05:55:07;;;;;;;13.53;9.77;;;;;;;21.75;100.00;98485.13;4933584;29;20814;-89
2022/08/23 05:57:37;;;;;;;14.60;10.53;;;;;;;23.08;100.00;98680.72;4917119;29;20253;-90
2022/08/23 06:00:11;;;;;;;17.47;12.20;;;;;;;23.23;100.00;98683.03;4934196;29;20189;-90
2022/08/23 06:02:36;;;;;;;17.77;12.57;;;;;;;23.29;100.00;98682.06;4913297;29;20185;-86
2022/08/23 06:05:02;;;;;;;17.63;12.80;;;;;;;22.66;100.00;98567.94;4900641;29;20550;-87
2022/08/23 06:07:27;;;;;;;17.37;13.87;;;;;;;22.03;100.00;98456.41;4927927;29;20785;-87
2022/08/23 06:09:54;;;;;;;14.97;11.00;;;;;;;23.41;100.00;98694.78;4935408;29;20565;-87
2022/08/23 06:12:19;;;;;;;17.47;10.63;;;;;;;22.01;100.00;98438.38;4925713;29;20251;-86
2022/08/23 06:14:45;;;;;;;14.37;10.93;;;;;;;22.18;100.00;98409.72;4955464;29;20173;-87
2022/08/23 06:17:10;;;;;;;15.37;11.07;;;;;;;22.86;100.00;98517.63;4937155;29;20205;-88
2022/08/23 06:19:36;;;;;;;15.20;10.63;;;;;;;22.99;100.00;98585.34;4918671;29;20835;-87
2022/08/23 06:22:02;;;;;;;15.87;10.07;;;;;;;23.01;100.00;98567.25;4936470;29;20217;-88
2022/08/23 06:24:28;;;;;;;12.70;10.33;;;;;;;21.88;100.00;98351.84;4919718;29;20304;-87
2022/08/23 06:26:53;;;;;;;15.20;11.13;;;;;;;24.17;100.00;98713.94;4919190;29;20648;-86
2022/08/23 06:29:19;;;;;;;16.13;11.93;;;;;;;23.60;100.00;98616.00;4919369;29;20276;-86
2022/08/23 06:31:48;;;;;;;17.23;12.27;;;;;;;24.40;100.00;98709.94;4936148;29;20192;-87
2022/08/23 06:34:17;;;;;;;15.47;11.90;;;;;;;24.44;100.00;98715.91;4936894;29;20725;-86
2022/08/23 06:36:43;;;;;;;17.57;11.40;;;;;;;24.39;100.00;98718.59;4919311;29;20193;-87
2022/08/23 06:39:10;;;;;;;17.13;11.37;;;;;;;24.51;100.00;98720.03;4919899;29;20606;-86
2022/08/23 06:41:36;;;;;;;16.30;12.40;;;;;;;22.91;100.00;98505.47;4937039;29;20197;-86
2022/08/23 06:44:03;;;;;;;20.47;12.43;;;;;;;22.36;100.00;98427.41;4936666;29;20185;-88
2022/08/23 06:46:29;;;;;;;18.03;12.50;;;;;;;24.45;100.00;98727.94;4936867;29;20221;-87
2022/08/23 06:48:56;;;;;;;18.67;11.00;;;;;;;22.54;100.00;98478.66;4937535;29;20260;-88
2022/08/23 06:51:27;;;;;;;15.53;11.00;;;;;;;23.71;100.00;98735.53;4944800;29;20189;-87
2022/08/23 06:53:54;;;;;;;19.83;11.70;;;;;;;23.77;100.00;98730.25;4928419;29;20213;-87
2022/08/23 06:56:21;;;;;;;15.83;11.27;;;;;;;24.04;100.00;98741.75;4919179;29;20197;-87
2022/08/23 06:58:47;;;;;;;15.93;12.13;;;;;;;24.09;100.00;98646.84;4936009;29;20462;-87
2022/08/23 07:01:28;;;;;;;17.03;11.77;;;;;;;23.19;100.00;98473.91;4918341;29;20575;-86
2022/08/23 07:03:54;;;;;;;15.63;11.30;;;;;;;24.48;100.00;98754.63;4937659;29;20228;-87
2022/08/23 07:06:22;;;;;;;14.93;11.33;;;;;;;24.46;100.00;98760.72;4939479;29;20184;-86
2022/08/23 07:08:47;;;;;;;16.20;11.37;;;;;;;24.61;100.00;98750.03;4955915;29;20208;-86
2022/08/23 07:11:13;;;;;;;17.13;11.73;;;;;;;23.97;100.00;98647.09;4949323;29;20223;-85
2022/08/23 07:13:39;;;;;;;16.73;11.80;;;;;;;23.44;100.00;98581.03;4931523;29;20272;-87
2022/08/23 07:16:04;;;;;;;18.00;12.33;;;;;;;23.27;100.00;98510.75;4939336;29;20729;-85
2022/08/23 07:18:30;;;;;;;19.40;13.37;;;;;;;22.37;100.00;98387.84;4938088;29;20223;-87
2022/08/23 07:20:57;;;;;;;19.60;13.10;;;;;;;24.21;100.00;98641.41;4935092;29;20673;-86
2022/08/23 07:23:24;;;;;;;17.07;13.50;;;;;;;24.61;100.00;98680.16;4934578;29;20189;-85
2022/08/23 07:25:50;;;;;;;17.53;13.50;;;;;;;25.50;100.00;98775.50;4935213;29;20185;-86
2022/08/23 07:28:15;;;;;;;19.00;12.30;;;;;;;25.23;100.00;98712.25;4935467;29;20208;-85
2022/08/23 07:30:41;;;;;;;18.43;12.97;;;;;;;25.47;100.00;98778.16;4935666;29;20177;-85
2022/08/23 07:33:07;;;;;;;17.63;13.10;;;;;;;24.68;100.00;98723.09;4935231;29;20802;-85
2022/08/23 07:35:32;;;;;;;20.27;14.07;;;;;;;24.18;100.00;98640.63;4934783;29;20328;-86
2022/08/23 07:37:58;;;;;;;20.43;13.73;;;;;;;23.88;100.00;98530.94;4917461;29;20223;-86
2022/08/23 07:40:23;;;;;;;16.87;13.43;;;;;;;24.94;100.00;98663.78;4917049;29;20182;-87
2022/08/23 07:42:49;;;;;;;18.80;12.97;;;;;;;22.96;100.00;98384.06;4934368;29;20256;-87
2022/08/23 07:45:14;;;;;;;18.60;13.13;;;;;;;23.71;100.00;98489.97;4934559;29;20178;-87
2022/08/23 07:47:41;;;;;;;18.37;12.80;;;;;;;26.06;100.00;98711.69;4916589;29;20714;-86
2022/08/23 07:50:07;;;;;;;18.08;12.45;;;;;;;25.90;100.00;98773.53;4916851;29;20214;-86
2022/08/23 07:52:33;;;;;;;19.40;13.48;;;;;;;24.37;100.00;98479.72;4916831;29;20743;-85
2022/08/23 07:54:58;;;;;;;19.13;13.43;;;;;;;24.58;100.00;98532.69;4934121;29;20238;-85
2022/08/23 07:57:26;;;;;;;19.70;12.82;;;;;;;24.41;100.00;98494.31;4934656;29;20579;-86
2022/08/23 07:59:51;;;;;;;17.65;12.98;;;;;;;23.84;100.00;98456.94;4934759;29;20193;-86
2022/08/23 08:02:17;;;;;;;15.77;12.80;;;;;;;24.65;100.00;98560.94;4917101;29;20191;-86
2022/08/23 08:04:42;;;;;;;16.88;12.45;;;;;;;24.99;100.00;98588.56;4934121;29;20183;-85
2022/08/23 08:07:08;;;;;;;18.33;12.50;;;;;;;24.27;100.00;98415.34;4944037;29;20182;-86
2022/08/23 08:09:34;;;;;;;14.90;12.02;;;;;;;24.83;100.00;98513.00;4936445;29;20189;-85
2022/08/23 08:11:59;;;;;;;15.80;12.75;;;;;;;26.11;100.00;98791.09;4937644;29;20338;-86
2022/08/23 08:14:25;;;;;;;17.48;12.82;;;;;;;25.81;100.00;98797.13;4917714;29;20736;-85
2022/08/23 08:16:51;;;;;;;16.58;12.50;;;;;;;26.60;100.00;98795.72;4934941;29;20239;-85
2022/08/23 08:19:18;;;;;;;15.63;13.05;;;;;;;25.74;100.00;98614.06;4917619;29;20187;-86
2022/08/23 08:21:44;;;;;;;17.67;13.07;;;;;;;25.48;100.00;98585.47;4917279;29;20185;-85
2022/08/23 08:24:12;;;;;;;15.55;12.55;;;;;;;27.05;100.00;98806.47;4934282;29;20186;-86
2022/08/23 08:26:39;;;;;;;14.98;11.48;;;;;;;27.50;100.00;98706.13;4916730;29;20195;-86
2022/08/23 08:29:05;;;;;;;13.30;10.50;;;;;;;28.07;100.00;98691.94;4934154;29;20212;-85
2022/08/23 08:31:31;;;;;;;16.65;11.30;;;;;;;27.25;100.00;98522.47;4917152;29;20262;-85
2022/08/23 08:33:57;;;;;;;16.67;11.15;;;;;;;27.63;100.00;98625.06;4933668;29;20709;-86
2022/08/23 08:36:48;;;;;;;18.25;13.32;;;;;;;28.65;100.00;98740.84;4916499;29;20185;-86
2022/08/23 08:39:17;;;;;;;14.90;11.18;;;;;;;29.13;100.00;98784.94;4934179;29;20190;-85
2022/08/23 08:42:21;;;;;;;17.70;11.85;;;;;;;28.12;100.00;98790.66;4932081;29;20211;-88
2022/08/23 08:44:52;;;;;;;16.45;11.50;;;;;;;28.29;100.00;98798.72;4897480;29;20247;-87
2022/08/23 08:47:31;;;;;;;16.40;11.13;;;;;;;27.85;100.00;98797.69;4914367;29;20185;-85
2022/08/23 08:50:12;;;;;;;16.98;11.43;;;;;;;28.34;100.00;98788.97;4897983;29;20203;-84
2022/08/23 08:52:39;;;;;;;13.07;10.52;;;;;;;27.46;100.00;98795.56;4919178;29;20193;-87
2022/08/23 08:55:12;;;;;;;25.17;19.52;;;;;;;26.75;100.00;98594.41;4933919;29;20184;-86
2022/08/23 08:57:44;;;;;;;12.57;10.75;;;;;;;28.64;100.00;98799.09;4917190;29;20220;-86
2022/08/23 09:00:14;;;;;;;14.05;10.70;;;;;;;28.32;70.57;98533.81;4916636;29;20196;-86
2022/08/23 09:02:41;;;;;;;14.18;9.98;;;;;;;28.10;68.14;98395.09;4933257;29;20196;-85
2022/08/23 09:05:14;;;;;;;15.02;10.52;;;;;;;29.96;69.31;98784.94;4933387;29;20192;-85
2022/08/23 09:07:56;;;;;;;14.10;10.98;;;;;;;29.64;70.26;98792.38;4946982;29;20204;-86
2022/08/23 09:10:52;;;;;;;17.15;11.02;;;;;;;29.33;71.01;98785.91;4952727;29;20189;-86
2022/08/23 09:13:32;;;;;;;15.90;10.98;;;;;;;28.96;71.57;98789.13;4935838;28;20247;-86
2022/08/23 09:16:16;;;;;;;12.90;11.02;;;;;;;27.24;74.69;98659.38;4917121;29;20232;-86
2022/08/23 09:18:42;;;;;;;15.32;10.50;;;;;;;28.23;73.85;98801.53;4937954;29;20216;-87
2022/08/23 09:21:08;;;;;;;16.88;11.32;;;;;;;28.26;74.08;98799.69;4933494;29;20196;-86
2022/08/23 09:23:40;;;;;;;18.27;11.55;;;;;;;28.56;74.21;98803.72;4933277;29;20662;-86
2022/08/23 09:26:15;;;;;;;15.68;11.05;;;;;;;27.44;73.13;98604.13;4916473;29;20213;-90
2022/08/23 09:28:40;;;;;;;14.55;11.00;;;;;;;27.42;72.24;98544.34;4916265;29;20203;-88
2022/08/23 09:31:07;;;;;;;14.45;10.93;;;;;;;27.43;72.12;98540.84;4915415;29;20197;-87
2022/08/23 09:33:42;;;;;;;14.13;11.10;;;;;;;28.00;71.83;98596.72;4933282;29;20692;-87
2022/08/23 09:36:13;;;;;;;14.55;10.85;;;;;;;29.46;71.70;98790.56;4933318;29;20206;-87
2022/08/23 09:38:51;;;;;;;15.50;11.63;;;;;;;28.87;71.69;98651.41;4916351;29;20716;-87
2022/08/23 09:41:22;;;;;;;14.02;10.32;;;;;;;29.90;69.34;98766.91;4935433;29;20191;-86
2022/08/23 09:43:48;;;;;;;13.23;10.80;;;;;;;29.81;67.57;98716.81;4934556;29;20194;-88
2022/08/23 09:46:25;;;;;;;17.52;11.15;;;;;;;29.71;67.99;98699.88;4916016;29;20602;-87
2022/08/23 09:48:54;;;;;;;15.38;12.30;;;;;;;30.79;67.76;98784.50;4930523;29;20735;-87
2022/08/23 09:51:32;;;;;;;15.30;11.73;;;;;;;29.07;66.47;98510.63;4916290;29;20668;-85
2022/08/23 09:54:06;;;;;;;15.18;11.68;;;;;;;30.73;67.45;98782.22;4911755;29;20272;-85
2022/08/23 09:59:46;;;;;;;13.85;11.70;;;;;;;31.00;66.24;98774.84;4964859;23;20676;-81
2022/08/23 10:02:27;;;;;;;15.25;11.40;;;;;;;31.32;65.74;98781.06;4799765;29;20278;-82
2022/08/23 10:05:00;;;;;;;12.50;10.68;;;;;;;31.35;64.66;98783.53;4827672;29;20200;-81
2022/08/23 10:07:37;;;;;;;15.20;11.43;;;;;;;30.63;66.68;98720.00;4817920;29;20209;-81
2022/08/23 10:10:23;;;;;;;12.70;11.23;;;;;;;31.24;65.30;98784.06;4832670;29;20191;-80
2022/08/23 10:12:50;;;;;;;13.50;11.15;;;;;;;31.08;64.95;98725.59;4800231;29;20217;-82
2022/08/23 10:15:16;;;;;;;12.38;10.30;;;;;;;31.33;67.00;98786.25;4786575;29;20691;-81
2022/08/23 10:17:47;;;;;;;17.92;12.48;;;;;;;30.79;67.04;98784.50;4781993;29;20259;-82
2022/08/23 10:20:36;;;;;;;14.07;11.82;;;;;;;31.36;65.51;98774.78;4782519;29;20206;-82
2022/08/23 10:23:19;;;;;;;15.43;11.50;;;;;;;31.56;65.04;98774.66;4764426;30;20210;-81
2022/08/23 10:25:56;;;;;;;14.38;11.57;;;;;;;31.21;65.13;98710.13;4796899;29;20220;-81
2022/08/23 10:31:46;;;;;;;13.82;10.90;;;;;;;31.31;64.93;98775.03;4799950;29;20337;-81
2022/08/23 10:34:40;;;;;;;13.05;11.63;;;;;;;30.99;66.40;98751.38;4800498;29;20342;-81
2022/08/23 10:37:34;;;;;;;14.85;11.52;;;;;;;30.91;67.08;98773.47;4800319;29;20351;-81
2022/08/23 10:40:18;;;;;;;15.52;11.70;;;;;;;28.79;65.17;98372.88;4780528;30;20717;-82
2022/08/23 10:43:11;;;;;;;16.13;11.93;;;;;;;31.50;65.53;98764.50;4782190;30;20209;-81
2022/08/23 10:45:40;;;;;;;14.60;11.63;;;;;;;31.58;64.83;98766.69;4796485;29;20215;-84
2022/08/23 10:48:28;;;;;;;13.52;11.15;;;;;;;31.64;63.62;98724.50;4800194;29;20190;-83
2022/08/23 10:51:22;;;;;;;13.52;11.05;;;;;;;31.16;62.41;98576.13;4832667;29;20566;-83
2022/08/23 10:53:59;;;;;;;13.02;11.60;;;;;;;32.01;62.04;98756.56;4836203;29;20682;-84
2022/08/23 10:56:25;;;;;;;13.95;11.23;;;;;;;31.85;61.82;98744.31;4835289;29;20229;-84
2022/08/23 10:59:08;;;;;;;13.18;11.35;;;;;;;30.87;64.36;98771.94;4837743;29;20281;-84
2022/08/23 11:01:44;;;;;;;13.48;11.15;;;;;;;31.04;62.25;98663.91;4841912;29;20227;-84
2022/08/23 11:04:32;;;;;;;16.13;11.93;;;;;;;32.00;62.56;98770.56;4839725;29;20800;-83
2022/08/23 11:07:00;;;;;;;12.77;11.38;;;;;;;32.55;60.37;98750.09;4838663;29;20288;-83
2022/08/23 11:09:26;;;;;;;14.45;11.45;;;;;;;32.94;59.77;98764.50;4833144;29;20990;-84
2022/08/23 11:12:09;;;;;;;12.93;11.32;;;;;;;33.37;58.69;98762.91;4839019;29;20701;-86
2022/08/23 11:14:41;;;;;;;12.45;11.15;;;;;;;32.92;59.26;98701.66;4837657;29;20259;-84
2022/08/23 11:17:11;;;;;;;15.27;11.73;;;;;;;32.47;57.60;98673.63;4869051;29;20226;-84
2022/08/23 11:19:57;;;;;;;13.52;11.65;;;;;;;33.00;58.72;98751.91;4897201;29;20206;-83
2022/08/23 11:22:31;;;;;;;12.70;11.40;;;;;;;33.10;58.39;98713.72;4894940;29;20205;-84
2022/08/23 11:25:00;;;;;;;14.45;12.07;;;;;;;32.15;57.69;98632.69;4895722;29;20187;-84
2022/08/23 11:27:40;;;;;;;14.48;11.63;;;;;;;32.43;58.63;98718.47;4889811;29;20199;-84
2022/08/23 11:30:31;;;;;;;15.80;12.10;;;;;;;32.37;58.95;98751.09;4878364;29;20202;-83
2022/08/23 11:33:01;;;;;;;13.73;12.35;;;;;;;32.72;59.02;98756.19;4895509;29;20269;-84
2022/08/23 11:35:34;;;;;;;15.77;12.70;;;;;;;32.63;58.39;98757.56;4897117;29;20592;-83
2022/08/23 11:38:01;;;;;;;16.25;12.48;;;;;;;32.44;58.61;98691.31;4880210;29;20219;-83